CheckWX is a tool to help pilots better visualize weather data.  It is not intended as a substitute for an official pre-flight weather briefing.

07:24:29 UTC

KLSE TAF
La Crosse Regional Airport
La Crosse, Wisconsin, USA
KLSE 260520Z 2606/2706 36009KT P6SM SCT040 OVC180 FM261800 35010KT P6SM BKN028 FM262100 32010KT P6SM BKN025 FM270300 32008KT P6SM BKN035

Feb-26@
06:00 UTC

Feb-26 @ 06:00 UTC

Feb-26@
18:00 UTC

Feb-26 @ 18:00 UTC

KLSE 260520Z 2606/2706 36009KT P6SM SCT040 OVC180
Wind
  • 360° at 9 KTS
Cloud Levels
  • Scattered at 4,000' AGL
  • Overcast at 18,000' AGL

Feb-26@
18:00 UTC

Feb-26 @ 18:00 UTC

Feb-26@
21:00 UTC

Feb-26 @ 21:00 UTC

FM261800 35010KT P6SM BKN028

From

From Standard forecast or significant change

Wind
  • 350° at 10 KTS
Cloud Levels
  • Broken at 2,800' AGL

Feb-26@
21:00 UTC

Feb-26 @ 21:00 UTC

Feb-27@
03:00 UTC

Feb-27 @ 03:00 UTC

FM262100 32010KT P6SM BKN025

From

From Standard forecast or significant change

Wind
  • 320° at 10 KTS
Cloud Levels
  • Broken at 2,500' AGL

Feb-27@
03:00 UTC

Feb-27 @ 03:00 UTC

Feb-27@
06:00 UTC

Feb-27 @ 06:00 UTC

FM270300 32008KT P6SM BKN035

From

From Standard forecast or significant change

Wind
  • 320° at 8 KTS
Cloud Levels
  • Broken at 3,500' AGL